Time,TemperatureF,DewpointF,PressureIn,WindDirection,WindDirectionDegrees,WindSpeedMPH,WindSpeedGustMPH,Humidity,HourlyPrecipIn,Conditions,Clouds,dailyrainin,SoftwareType,DateUTC
2013-04-02 00:14:00,46.3,32.0,29.89,NW,304,13.0,-999.0,59,-99.99,,,0.00,weatherlink.com 1.10,2013-04-02 04:14:00,
2013-04-02 00:29:00,45.9,32.0,29.89,NW,317,5.0,-999.0,59,-99.99,,,0.00,weatherlink.com 1.10,2013-04-02 04:29:00,
2013-04-02 00:44:00,45.9,32.0,29.88,NNW,337,7.0,-999.0,59,-99.99,,,0.00,weatherlink.com 1.10,2013-04-02 04:44:00,
2013-04-02 00:59:00,45.4,32.0,29.89,WNW,298,2.0,-999.0,60,-99.99,,,0.00,weatherlink.com 1.10,2013-04-02 04:59:00,
2013-04-02 01:14:00,45.0,32.0,29.89,North,355,8.0,-999.0,60,-99.99,,,0.00,weatherlink.com 1.10,2013-04-02 05:14:00,
2013-04-02 01:29:00,44.7,31.0,29.89,NW,323,7.0,-999.0,60,-99.99,,,0.00,weatherlink.com 1.10,2013-04-02 05:29:00,
2013-04-02 01:44:00,44.5,31.0,29.89,NW,324,4.0,-999.0,59,-99.99,,,0.00,weatherlink.com 1.10,2013-04-02 05:44:00,
2013-04-02 01:59:00,44.0,31.0,29.89,NW,315,8.0,-999.0,60,-99.99,,,0.00,weatherlink.com 1.10,2013-04-02 05:59:00,
2013-04-02 02:14:00,44.0,30.0,29.89,NW,311,11.0,-999.0,59,-99.99,,,0.00,weatherlink.com 1.10,2013-04-02 06:14:00,
2013-04-02 02:29:00,43.7,30.0,29.89,WNW,288,6.0,-999.0,60,-99.99,,,0.00,weatherlink.com 1.10,2013-04-02 06:29:00,
2013-04-02 02:44:00,43.0,30.0,29.89,SSW,207,5.0,-999.0,61,-99.99,,,0.00,weatherlink.com 1.10,2013-04-02 06:44:00,
2013-04-02 02:59:00,43.0,30.0,29.90,West,263,3.0,-999.0,61,-99.99,,,0.00,weatherlink.com 1.10,2013-04-02 06:59:00,
2013-04-02 03:14:00,42.8,30.0,29.90,NW,306,5.0,-999.0,61,-99.99,,,0.00,weatherlink.com 1.10,2013-04-02 07:14:00,
2013-04-02 03:29:00,42.5,30.0,29.89,NNE,15,8.0,-999.0,62,-99.99,,,0.00,weatherlink.com 1.10,2013-04-02 07:29:00,
2013-04-02 03:44:00,42.3,30.0,29.89,NW,315,7.0,-999.0,63,-99.99,,,0.00,weatherlink.com 1.10,2013-04-02 07:44:00,
2013-04-02 03:59:00,42.1,30.0,29.89,NW,324,9.0,-999.0,63,-99.99,,,0.00,weatherlink.com 1.10,2013-04-02 07:59:00,
2013-04-02 04:14:00,42.0,30.0,29.90,NW,325,8.0,-999.0,63,-99.99,,,0.00,weatherlink.com 1.10,2013-04-02 08:14:00,
2013-04-02 04:29:00,41.8,30.0,29.91,North,355,15.0,-999.0,64,-99.99,,,0.00,weatherlink.com 1.10,2013-04-02 08:29:00,
2013-04-02 04:44:00,41.4,30.0,29.91,WNW,302,9.0,-999.0,65,-99.99,,,0.00,weatherlink.com 1.10,2013-04-02 08:44:00,
2013-04-02 04:59:00,41.1,30.0,29.92,NW,320,6.0,-999.0,66,-99.99,,,0.00,weatherlink.com 1.10,2013-04-02 08:59:00,
2013-04-02 05:14:00,40.7,30.0,29.93,ENE,58,5.0,-999.0,66,-99.99,,,0.00,weatherlink.com 1.10,2013-04-02 09:14:00,
2013-04-02 05:29:00,40.3,30.0,29.93,WNW,296,5.0,-999.0,66,-99.99,,,0.00,weatherlink.com 1.10,2013-04-02 09:29:00,
2013-04-02 05:44:00,40.0,29.0,29.93,West,265,4.0,-999.0,66,-99.99,,,0.00,weatherlink.com 1.10,2013-04-02 09:44:00,
2013-04-02 05:59:00,39.7,29.0,29.94,North,349,5.0,-999.0,65,-99.99,,,0.00,weatherlink.com 1.10,2013-04-02 09:59:00,
2013-04-02 06:14:00,39.5,29.0,29.95,NW,321,4.0,-999.0,65,-99.99,,,0.00,weatherlink.com 1.10,2013-04-02 10:14:00,
2013-04-02 06:29:00,39.3,28.0,29.96,NW,317,7.0,-999.0,65,-99.99,,,0.00,weatherlink.com 1.10,2013-04-02 10:29:00,
2013-04-02 06:44:00,38.9,28.0,29.97,NNW,334,8.0,-999.0,65,-99.99,,,0.00,weatherlink.com 1.10,2013-04-02 10:44:00,
2013-04-02 06:59:00,38.6,28.0,29.97,WNW,302,4.0,-999.0,66,-99.99,,,0.00,weatherlink.com 1.10,2013-04-02 10:59:00,
2013-04-02 07:14:00,38.2,27.0,29.97,NNW,332,4.0,-999.0,65,-99.99,,,0.00,weatherlink.com 1.10,2013-04-02 11:14:00,
2013-04-02 07:29:00,37.5,27.0,29.98,NW,309,2.0,-999.0,67,-99.99,,,0.00,weatherlink.com 1.10,2013-04-02 11:29:00,
2013-04-02 07:44:00,37.1,28.0,30.00,NW,325,1.0,-999.0,69,-99.99,,,0.00,weatherlink.com 1.10,2013-04-02 11:44:00,
2013-04-02 07:59:00,36.2,28.0,30.00,NW,317,0.0,-999.0,72,-99.99,,,0.00,weatherlink.com 1.10,2013-04-02 11:59:00,
2013-04-02 08:14:00,36.0,28.0,30.01,NW,320,0.0,-999.0,73,-99.99,,,0.00,weatherlink.com 1.10,2013-04-02 12:14:00,
2013-04-02 08:29:00,35.9,29.0,30.01,NW,324,1.0,-999.0,75,-99.99,,,0.00,weatherlink.com 1.10,2013-04-02 12:29:00,
2013-04-02 08:44:00,36.1,29.0,30.01,ENE,58,3.0,-999.0,74,-99.99,,,0.00,weatherlink.com 1.10,2013-04-02 12:44:00,
2013-04-02 08:59:00,36.8,29.0,30.01,ENE,61,8.0,-999.0,72,-99.99,,,0.00,weatherlink.com 1.10,2013-04-02 12:59:00,
2013-04-02 09:14:00,37.3,28.0,30.02,North,351,1.0,-999.0,70,-99.99,,,0.00,weatherlink.com 1.10,2013-04-02 13:14:00,
2013-04-02 09:29:00,37.9,29.0,30.00,North,355,2.0,-999.0,70,-99.99,,,0.00,weatherlink.com 1.10,2013-04-02 13:29:00,
2013-04-02 09:44:00,39.0,29.0,30.02,NE,44,2.0,-999.0,68,-99.99,,,0.00,weatherlink.com 1.10,2013-04-02 13:44:00,
2013-04-02 09:59:00,39.7,28.0,30.03,NNW,344,7.0,-999.0,64,-99.99,,,0.00,weatherlink.com 1.10,2013-04-02 13:59:00,
2013-04-02 10:14:00,40.4,26.0,30.03,North,350,4.0,-999.0,56,-99.99,,,0.00,weatherlink.com 1.10,2013-04-02 14:14:00,
2013-04-02 10:29:00,41.6,27.0,30.04,North,9,1.0,-999.0,56,-99.99,,,0.00,weatherlink.com 1.10,2013-04-02 14:29:00,
2013-04-02 10:44:00,42.5,27.0,30.04,North,349,5.0,-999.0,54,-99.99,,,0.00,weatherlink.com 1.10,2013-04-02 14:44:00,
2013-04-02 10:59:00,44.5,27.0,30.04,North,349,5.0,-999.0,51,-99.99,,,0.00,weatherlink.com 1.10,2013-04-02 14:59:00,
2013-04-02 11:14:00,45.8,25.0,30.04,North,355,2.0,-999.0,44,-99.99,,,0.00,weatherlink.com 1.10,2013-04-02 15:14:00,
2013-04-02 11:29:00,46.9,25.0,30.04,NNW,348,1.0,-999.0,42,-99.99,,,0.00,weatherlink.com 1.10,2013-04-02 15:29:00,
2013-04-02 11:44:00,49.2,27.0,30.04,SSW,203,1.0,-999.0,43,-99.99,,,0.00,weatherlink.com 1.10,2013-04-02 15:44:00,
2013-04-02 12:14:00,53.3,31.0,30.04,SW,236,3.0,-999.0,42,-99.99,,,0.00,weatherlink.com 1.10,2013-04-02 16:14:00,
2013-04-02 12:29:00,54.4,29.0,30.04,WSW,242,0.0,-999.0,38,-99.99,,,0.00,weatherlink.com 1.10,2013-04-02 16:29:00,
2013-04-02 12:59:00,57.0,29.0,30.03,SSW,193,2.0,-999.0,34,-99.99,,,0.00,weatherlink.com 1.10,2013-04-02 16:59:00,
2013-04-02 13:14:00,58.3,30.0,30.02,South,174,2.0,-999.0,34,-99.99,,,0.00,weatherlink.com 1.10,2013-04-02 17:14:00,
2013-04-02 13:29:00,57.9,30.0,30.02,South,182,3.0,-999.0,34,-99.99,,,0.00,weatherlink.com 1.10,2013-04-02 17:29:00,
2013-04-02 13:44:00,58.5,28.0,30.00,SSW,207,3.0,-999.0,31,-99.99,,,0.00,weatherlink.com 1.10,2013-04-02 17:44:00,
2013-04-02 13:59:00,59.4,27.0,30.00,SSE,166,2.0,-999.0,29,-99.99,,,0.00,weatherlink.com 1.10,2013-04-02 17:59:00,
2013-04-02 14:14:00,60.3,29.0,30.00,SSE,166,0.0,-999.0,30,-99.99,,,0.00,weatherlink.com 1.10,2013-04-02 18:14:00,
2013-04-02 14:29:00,61.3,27.0,29.99,SSE,164,0.0,-999.0,27,-99.99,,,0.00,weatherlink.com 1.10,2013-04-02 18:29:00,
2013-04-02 14:44:00,60.7,22.0,29.99,NNE,22,9.0,-999.0,23,-99.99,,,0.00,weatherlink.com 1.10,2013-04-02 18:44:00,
2013-04-02 14:59:00,59.7,19.0,29.98,NW,315,6.0,-999.0,21,-99.99,,,0.00,weatherlink.com 1.10,2013-04-02 18:59:00,
2013-04-02 15:14:00,60.7,20.0,29.97,NNW,332,8.0,-999.0,21,-99.99,,,0.00,weatherlink.com 1.10,2013-04-02 19:14:00,
2013-04-02 15:29:00,59.3,21.0,29.98,NW,313,8.0,-999.0,23,-99.99,,,0.00,weatherlink.com 1.10,2013-04-02 19:29:00,
2013-04-02 15:59:00,59.9,24.0,29.97,NNE,12,5.0,-999.0,25,-99.99,,,0.00,weatherlink.com 1.10,2013-04-02 19:59:00,
2013-04-02 16:14:00,58.6,21.0,29.96,WNW,288,2.0,-999.0,23,-99.99,,,0.00,weatherlink.com 1.10,2013-04-02 20:14:00,
2013-04-02 16:29:00,58.3,23.0,29.96,NW,309,7.0,-999.0,26,-99.99,,,0.00,weatherlink.com 1.10,2013-04-02 20:29:00,
2013-04-02 16:44:00,58.8,21.0,29.96,WSW,241,0.0,-999.0,23,-99.99,,,0.00,weatherlink.com 1.10,2013-04-02 20:44:00,
2013-04-02 16:59:00,59.4,20.0,29.96,NNW,339,4.0,-999.0,22,-99.99,,,0.00,weatherlink.com 1.10,2013-04-02 20:59:00,
2013-04-02 17:14:00,58.4,21.0,29.96,SSE,158,5.0,-999.0,23,-99.99,,,0.00,weatherlink.com 1.10,2013-04-02 21:14:00,
2013-04-02 17:29:00,56.9,21.0,29.97,West,281,7.0,-999.0,25,-99.99,,,0.00,weatherlink.com 1.10,2013-04-02 21:29:00,
2013-04-02 17:59:00,55.8,21.0,29.98,WNW,298,7.0,-999.0,26,-99.99,,,0.00,weatherlink.com 1.10,2013-04-02 21:59:00,
2013-04-02 18:29:00,55.7,18.0,29.98,NW,320,8.0,-999.0,23,-99.99,,,0.00,weatherlink.com 1.10,2013-04-02 22:29:00,
2013-04-02 18:44:00,56.0,17.0,29.98,NNW,344,13.0,-999.0,22,-99.99,,,0.00,weatherlink.com 1.10,2013-04-02 22:44:00,
2013-04-02 18:59:00,55.6,12.0,29.99,North,355,12.0,-999.0,18,-99.99,,,0.00,weatherlink.com 1.10,2013-04-02 22:59:00,
2013-04-02 19:14:00,54.3,13.0,29.99,NW,321,8.0,-999.0,19,-99.99,,,0.00,weatherlink.com 1.10,2013-04-02 23:14:00,
2013-04-02 19:29:00,53.2,12.0,30.00,WNW,287,5.0,-999.0,19,-99.99,,,0.00,weatherlink.com 1.10,2013-04-02 23:29:00,
2013-04-02 19:44:00,52.4,10.0,29.99,West,270,0.0,-999.0,18,-99.99,,,0.00,weatherlink.com 1.10,2013-04-02 23:44:00,
2013-04-02 19:59:00,52.0,12.0,29.99,West,273,1.0,-999.0,20,-99.99,,,0.00,weatherlink.com 1.10,2013-04-02 23:59:00,
2013-04-02 20:14:00,51.1,13.0,30.01,NW,304,4.0,-999.0,22,-99.99,,,0.00,weatherlink.com 1.10,2013-04-03 00:14:00,
2013-04-02 20:29:00,50.6,13.0,30.01,NW,308,4.0,-999.0,22,-99.99,,,0.00,weatherlink.com 1.10,2013-04-03 00:29:00,
2013-04-02 20:44:00,50.1,14.0,30.01,NW,324,8.0,-999.0,24,-99.99,,,0.00,weatherlink.com 1.10,2013-04-03 00:44:00,
2013-04-02 20:59:00,49.7,17.0,30.01,West,277,7.0,-999.0,27,-99.99,,,0.00,weatherlink.com 1.10,2013-04-03 00:59:00,
2013-04-02 21:14:00,49.0,19.0,30.01,NNW,332,5.0,-999.0,30,-99.99,,,0.00,weatherlink.com 1.10,2013-04-03 01:14:00,
2013-04-02 21:29:00,48.6,17.0,30.02,NW,305,1.0,-999.0,29,-99.99,,,0.00,weatherlink.com 1.10,2013-04-03 01:29:00,
2013-04-02 21:44:00,48.4,17.0,30.02,North,355,9.0,-999.0,29,-99.99,,,0.00,weatherlink.com 1.10,2013-04-03 01:44:00,
2013-04-02 21:59:00,48.0,19.0,30.02,NW,313,4.0,-999.0,32,-99.99,,,0.00,weatherlink.com 1.10,2013-04-03 01:59:00,
2013-04-02 22:14:00,47.4,21.0,30.02,NNW,343,5.0,-999.0,35,-99.99,,,0.00,weatherlink.com 1.10,2013-04-03 02:14:00,
2013-04-02 22:29:00,46.5,22.0,30.03,NW,305,5.0,-999.0,38,-99.99,,,0.00,weatherlink.com 1.10,2013-04-03 02:29:00,
2013-04-02 22:44:00,45.8,21.0,30.03,NW,310,5.0,-999.0,38,-99.99,,,0.00,weatherlink.com 1.10,2013-04-03 02:44:00,
2013-04-02 22:59:00,45.3,22.0,30.03,NNW,327,4.0,-999.0,40,-99.99,,,0.00,weatherlink.com 1.10,2013-04-03 02:59:00,
2013-04-02 23:14:00,44.9,22.0,30.03,NW,325,6.0,-999.0,40,-99.99,,,0.00,weatherlink.com 1.10,2013-04-03 03:14:00,
2013-04-02 23:29:00,44.6,22.0,30.03,NW,315,9.0,-999.0,41,-99.99,,,0.00,weatherlink.com 1.10,2013-04-03 03:29:00,
2013-04-02 23:44:00,44.6,22.0,30.02,NW,321,8.0,-999.0,41,-99.99,,,0.00,weatherlink.com 1.10,2013-04-03 03:44:00,
2013-04-02 23:59:00,44.2,23.0,30.02,North,349,13.0,-999.0,44,-99.99,,,0.00,weatherlink.com 1.10,2013-04-03 03:59:00,